createdAt,value
2023-08-15T00:01:03.838Z,20.89
2023-08-15T00:03:31.925Z,20.94
2023-08-15T00:05:59.996Z,20.95
2023-08-15T00:08:27.970Z,20.91
2023-08-15T00:10:57.339Z,20.90
2023-08-15T00:13:25.386Z,20.83
2023-08-15T00:15:53.317Z,20.84
2023-08-15T00:18:21.238Z,20.79
2023-08-15T00:20:49.485Z,20.77
2023-08-15T00:23:17.960Z,20.78
2023-08-15T00:25:45.933Z,20.77
2023-08-15T00:28:15.219Z,20.78
2023-08-15T00:30:44.012Z,20.80
2023-08-15T00:33:11.970Z,20.81
2023-08-15T00:35:39.937Z,20.85
2023-08-15T00:38:07.867Z,20.85
2023-08-15T00:40:35.833Z,20.84
2023-08-15T00:43:04.245Z,20.81
2023-08-15T00:45:33.559Z,20.79
2023-08-15T00:48:01.557Z,20.77
2023-08-15T00:50:29.477Z,20.76
2023-08-15T00:52:57.474Z,20.74
2023-08-15T00:55:25.412Z,20.72
2023-08-15T00:57:53.321Z,20.74
2023-08-15T01:00:21.246Z,20.74
2023-08-15T01:02:50.561Z,20.70
2023-08-15T01:05:18.577Z,20.74
2023-08-15T01:07:46.700Z,20.76
2023-08-15T01:10:14.704Z,20.77
2023-08-15T01:12:45.342Z,20.73
2023-08-15T01:15:16.016Z,20.74
2023-08-15T01:17:46.958Z,20.72
2023-08-15T01:20:18.340Z,20.71
2023-08-15T01:22:46.660Z,20.68
2023-08-15T01:25:15.991Z,20.58
2023-08-15T01:27:43.927Z,20.56
2023-08-15T01:30:12.570Z,20.52
2023-08-15T01:32:45.039Z,20.51
2023-08-15T01:35:16.132Z,20.51
2023-08-15T01:37:45.504Z,20.51
2023-08-15T01:40:13.432Z,20.52
2023-08-15T01:42:42.750Z,20.52
2023-08-15T01:45:11.482Z,20.55
2023-08-15T01:47:39.459Z,20.54
2023-08-15T01:50:08.854Z,20.56
2023-08-15T01:52:37.104Z,20.57
2023-08-15T01:55:05.328Z,20.52
2023-08-15T01:57:33.248Z,20.49
2023-08-15T02:00:02.559Z,20.48
2023-08-15T02:02:30.592Z,20.43
2023-08-15T02:05:03.121Z,20.40
2023-08-15T02:07:31.133Z,20.31
2023-08-15T02:09:59.077Z,20.31
2023-08-15T02:12:27.023Z,20.28
2023-08-15T02:14:54.935Z,20.25
2023-08-15T02:17:24.221Z,20.25
2023-08-15T02:19:52.675Z,20.21
2023-08-15T02:22:20.541Z,20.14
2023-08-15T02:24:48.764Z,20.09
2023-08-15T02:27:16.746Z,20.07
2023-08-15T02:29:44.946Z,20.08
2023-08-15T02:32:12.861Z,20.07
2023-08-15T02:34:42.180Z,20.09
2023-08-15T02:37:10.092Z,20.11
2023-08-15T02:39:37.982Z,20.11
2023-08-15T02:42:06.020Z,20.12
2023-08-15T02:44:34.310Z,20.09
2023-08-15T02:47:02.292Z,20.06
2023-08-15T02:49:30.273Z,20.10
2023-08-15T02:51:59.580Z,20.11
2023-08-15T02:54:27.537Z,20.15
2023-08-15T02:56:55.514Z,20.11
2023-08-15T02:59:23.413Z,20.15
2023-08-15T03:01:51.418Z,20.09
2023-08-15T03:04:19.797Z,20.17
2023-08-15T03:06:48.196Z,20.18
2023-08-15T03:09:18.099Z,20.14
2023-08-15T03:11:46.008Z,20.14
2023-08-15T03:14:13.910Z,20.13
2023-08-15T03:16:41.804Z,20.13
2023-08-15T03:19:09.759Z,20.11
2023-08-15T03:21:37.697Z,20.09
2023-08-15T03:24:05.971Z,20.06
2023-08-15T03:26:35.293Z,20.05
2023-08-15T03:29:03.227Z,20.02
2023-08-15T03:31:32.517Z,20.00
2023-08-15T03:34:00.478Z,19.96
2023-08-15T03:36:28.426Z,19.92
2023-08-15T03:38:56.503Z,19.90
2023-08-15T03:41:24.426Z,19.89
2023-08-15T03:43:53.705Z,19.87
2023-08-15T03:46:21.671Z,19.88
2023-08-15T03:48:49.634Z,19.87
2023-08-15T03:51:38.167Z,19.86
2023-08-15T03:54:05.789Z,19.85
2023-08-15T03:56:33.712Z,19.86
2023-08-15T03:59:03.013Z,19.91
2023-08-15T04:01:31.267Z,19.87
2023-08-15T04:03:59.399Z,19.84
2023-08-15T04:06:27.313Z,19.82
2023-08-15T04:08:55.238Z,19.79
2023-08-15T04:11:23.222Z,19.73
2023-08-15T04:13:51.175Z,19.67
2023-08-15T04:16:20.499Z,19.63
2023-08-15T04:18:48.459Z,19.63
2023-08-15T04:21:16.381Z,19.64
2023-08-15T04:23:44.284Z,19.64
2023-08-15T04:26:12.181Z,19.62
2023-08-15T04:28:40.190Z,19.65
2023-08-15T04:31:08.144Z,19.62
2023-08-15T04:33:37.520Z,19.64
2023-08-15T04:36:05.667Z,19.65
2023-08-15T04:38:33.580Z,19.68
2023-08-15T04:41:01.534Z,19.77
2023-08-15T04:43:29.482Z,19.79
2023-08-15T04:45:57.479Z,19.81
2023-08-15T04:48:25.468Z,19.83
2023-08-15T04:50:54.827Z,19.86
2023-08-15T04:53:22.737Z,19.84
2023-08-15T04:55:50.700Z,19.87
2023-08-15T04:58:18.630Z,19.91
2023-08-15T05:00:46.800Z,19.92
2023-08-15T05:03:14.791Z,19.93
2023-08-15T05:05:42.722Z,19.94
2023-08-15T05:08:13.332Z,19.92
2023-08-15T05:10:41.394Z,19.92
2023-08-15T05:13:09.693Z,19.93
2023-08-15T05:15:37.734Z,19.95
2023-08-15T05:18:06.646Z,19.94
2023-08-15T05:20:35.305Z,19.91
2023-08-15T05:23:03.252Z,19.90
2023-08-15T05:25:32.561Z,19.90
2023-08-15T05:28:00.540Z,19.89
2023-08-15T05:30:28.565Z,19.91
2023-08-15T05:32:56.545Z,19.93
2023-08-15T05:35:24.519Z,19.97
2023-08-15T05:37:52.431Z,19.97
2023-08-15T05:40:20.394Z,20.02
2023-08-15T05:42:49.811Z,20.02
2023-08-15T05:45:17.702Z,20.08
2023-08-15T05:47:46.081Z,20.07
2023-08-15T05:50:14.038Z,20.15
2023-08-15T05:52:42.045Z,20.19
2023-08-15T05:55:10.411Z,20.22
2023-08-15T05:57:38.434Z,20.27
2023-08-15T06:00:11.678Z,20.31
2023-08-15T06:02:41.178Z,20.34
2023-08-15T06:05:09.611Z,20.40
2023-08-15T06:07:37.600Z,20.44
2023-08-15T06:10:06.181Z,20.49
2023-08-15T06:12:34.244Z,20.54
2023-08-15T06:15:02.312Z,20.58
2023-08-15T06:17:31.739Z,20.60
2023-08-15T06:19:59.725Z,20.62
2023-08-15T06:22:28.103Z,20.63
2023-08-15T06:24:56.098Z,20.67
2023-08-15T06:27:24.071Z,20.72
2023-08-15T06:29:52.159Z,20.81
2023-08-15T06:32:39.250Z,20.95
2023-08-15T06:35:08.238Z,21.04
2023-08-15T06:37:36.215Z,21.10
2023-08-15T06:40:05.623Z,21.11
2023-08-15T06:42:33.763Z,21.21
2023-08-15T06:45:07.463Z,21.24
2023-08-15T06:47:35.604Z,21.35
2023-08-15T06:50:05.669Z,21.40
2023-08-15T06:52:33.874Z,21.46
2023-08-15T06:55:04.881Z,21.54
2023-08-15T06:57:33.512Z,21.61
2023-08-15T07:00:01.705Z,21.70
2023-08-15T07:02:29.745Z,21.82
2023-08-15T07:04:57.986Z,21.91
2023-08-15T07:07:27.623Z,21.98
2023-08-15T07:09:55.656Z,22.04
2023-08-15T07:12:23.942Z,22.09
2023-08-15T07:14:52.320Z,22.15
2023-08-15T07:17:20.363Z,22.18
2023-08-15T07:19:48.537Z,22.18
2023-08-15T07:22:16.921Z,22.18
2023-08-15T07:24:46.809Z,22.23
2023-08-15T07:27:14.795Z,22.25
2023-08-15T07:29:43.142Z,22.27
2023-08-15T07:32:13.377Z,22.23
2023-08-15T07:34:42.031Z,22.25
2023-08-15T07:37:10.011Z,22.33
2023-08-15T07:39:38.046Z,22.42
2023-08-15T07:42:07.687Z,22.48
2023-08-15T07:44:35.623Z,22.57
2023-08-15T07:47:03.659Z,22.66
2023-08-15T07:49:33.711Z,22.68
2023-08-15T07:52:01.718Z,22.73
2023-08-15T07:54:29.660Z,22.79
2023-08-15T07:59:26.963Z,22.93
2023-08-15T08:01:55.164Z,23.06
2023-08-15T08:04:23.423Z,23.19
2023-08-15T08:06:52.112Z,23.37
2023-08-15T08:09:20.059Z,23.44
2023-08-15T08:11:49.572Z,23.59
2023-08-15T08:14:17.487Z,23.80
2023-08-15T08:16:46.999Z,23.96
2023-08-15T08:19:15.761Z,23.99
2023-08-15T08:21:43.957Z,24.03
2023-08-15T08:24:12.271Z,23.96
2023-08-15T08:26:40.385Z,23.95
2023-08-15T08:29:08.823Z,23.91
2023-08-15T08:31:38.904Z,23.91
2023-08-15T08:34:14.828Z,23.93
2023-08-15T08:36:43.054Z,23.93
2023-08-15T08:39:21.600Z,23.86
2023-08-15T08:41:58.235Z,23.85
2023-08-15T08:44:26.435Z,23.76
2023-08-15T08:46:54.562Z,23.71
2023-08-15T08:49:24.055Z,23.75
2023-08-15T08:51:52.400Z,23.82
2023-08-15T08:54:26.696Z,23.79
2023-08-15T08:57:05.512Z,23.81
2023-08-15T08:59:33.876Z,23.90
2023-08-15T09:02:01.883Z,23.98
2023-08-15T09:04:32.258Z,23.97
2023-08-15T09:07:00.355Z,24.01
2023-08-15T09:09:28.416Z,24.16
2023-08-15T09:11:56.621Z,24.18
2023-08-15T09:14:24.887Z,24.07
2023-08-15T09:16:52.894Z,24.05
2023-08-15T09:19:20.895Z,24.02
2023-08-15T09:21:51.311Z,24.07
2023-08-15T09:24:19.407Z,24.07
2023-08-15T09:26:47.392Z,24.08
2023-08-15T09:29:15.571Z,24.05
2023-08-15T09:31:44.744Z,24.05
2023-08-15T09:34:12.857Z,24.06
2023-08-15T09:36:41.126Z,24.12
2023-08-15T09:39:10.639Z,24.26
2023-08-15T09:41:42.324Z,24.39
2023-08-15T09:44:10.423Z,24.49
2023-08-15T09:46:39.276Z,24.53
2023-08-15T09:49:07.570Z,24.52
2023-08-15T09:51:35.636Z,24.45
2023-08-15T09:54:03.707Z,24.38
2023-08-15T09:56:33.306Z,24.32
2023-08-15T09:59:01.392Z,24.32
2023-08-15T10:01:29.662Z,24.34
2023-08-15T10:03:57.634Z,24.40
2023-08-15T10:06:26.083Z,24.42
2023-08-15T10:08:57.143Z,24.44
2023-08-15T10:11:25.428Z,24.42
2023-08-15T10:13:54.768Z,24.45
2023-08-15T10:16:22.919Z,24.46
2023-08-15T10:18:55.614Z,24.44
2023-08-15T10:21:24.571Z,24.51
2023-08-15T10:23:55.146Z,24.57
2023-08-15T10:26:23.663Z,24.67
2023-08-15T10:28:51.716Z,24.87
2023-08-15T10:31:39.204Z,25.00
2023-08-15T10:34:10.989Z,25.15
2023-08-15T10:36:41.935Z,25.29
2023-08-15T10:39:10.079Z,25.47
2023-08-15T10:41:38.241Z,25.62
2023-08-15T10:44:07.449Z,25.64
2023-08-15T10:46:36.849Z,25.53
2023-08-15T10:49:10.355Z,25.60
2023-08-15T10:51:39.281Z,25.64
2023-08-15T10:54:08.649Z,25.71
2023-08-15T10:56:38.008Z,25.75
2023-08-15T10:59:09.027Z,25.78
2023-08-15T11:01:38.029Z,25.86
2023-08-15T11:04:09.517Z,25.92
2023-08-15T11:06:43.111Z,26.05
2023-08-15T11:09:12.333Z,26.23
2023-08-15T11:11:40.795Z,26.33
2023-08-15T11:14:16.587Z,26.43
2023-08-15T11:16:44.974Z,26.33
2023-08-15T11:19:16.536Z,26.32
2023-08-15T11:21:44.854Z,26.23
2023-08-15T11:24:12.956Z,26.22
2023-08-15T11:26:42.710Z,26.19
2023-08-15T11:29:12.428Z,26.24
2023-08-15T11:31:40.749Z,26.06
2023-08-15T11:34:09.568Z,25.97
2023-08-15T11:36:39.845Z,26.03
2023-08-15T11:39:08.041Z,26.27
2023-08-15T11:41:36.803Z,26.55
2023-08-15T11:44:06.085Z,26.87
2023-08-15T11:46:52.657Z,27.25
2023-08-15T11:49:25.189Z,27.53
2023-08-15T11:52:03.655Z,27.95
2023-08-15T11:54:31.845Z,28.41
2023-08-15T11:57:00.440Z,28.71
2023-08-15T11:59:28.727Z,28.75
2023-08-15T12:01:56.959Z,28.72
2023-08-15T12:04:25.973Z,28.60
2023-08-15T12:06:58.302Z,28.52
2023-08-15T12:09:30.823Z,28.63
2023-08-15T12:11:59.324Z,28.86
2023-08-15T12:14:29.028Z,29.19
2023-08-15T12:17:03.902Z,29.34
2023-08-15T12:19:32.111Z,29.42
2023-08-15T12:22:01.827Z,29.57
2023-08-15T12:24:30.015Z,29.68
2023-08-15T12:26:58.510Z,29.80
2023-08-15T12:30:10.694Z,29.59
2023-08-15T12:32:13.946Z,29.51
2023-08-15T12:34:44.167Z,29.63
2023-08-15T12:37:13.694Z,29.58
2023-08-15T12:39:41.859Z,29.67
2023-08-15T12:42:10.074Z,29.84
2023-08-15T12:44:39.071Z,29.97
2023-08-15T12:47:07.519Z,30.12
2023-08-15T12:49:35.903Z,30.17
2023-08-15T12:52:04.644Z,30.37
2023-08-15T12:54:34.285Z,30.57
2023-08-15T12:57:03.223Z,30.42
2023-08-15T12:59:31.951Z,30.18
2023-08-15T13:02:00.023Z,30.07
2023-08-15T13:04:28.264Z,30.26
2023-08-15T13:06:56.422Z,30.19
2023-08-15T13:09:24.621Z,30.29
2023-08-15T13:11:54.584Z,30.50
2023-08-15T13:14:31.092Z,30.84
2023-08-15T13:17:02.999Z,31.20
2023-08-15T13:19:31.473Z,31.45
2023-08-15T13:22:00.354Z,31.68
2023-08-15T13:24:30.444Z,31.80
2023-08-15T13:26:59.997Z,31.74
2023-08-15T13:29:29.087Z,31.91
2023-08-15T13:31:57.532Z,32.12
2023-08-15T13:34:26.398Z,32.17
2023-08-15T13:36:54.423Z,32.33
2023-08-15T13:39:22.458Z,32.42
2023-08-15T13:41:50.540Z,32.58
2023-08-15T13:44:20.189Z,32.57
2023-08-15T13:46:48.908Z,32.56
2023-08-15T13:49:17.045Z,32.54
2023-08-15T13:51:45.118Z,32.56
2023-08-15T13:54:13.460Z,32.66
2023-08-15T13:56:41.511Z,32.78
2023-08-15T13:59:09.644Z,32.94
2023-08-15T14:01:39.495Z,33.15
2023-08-15T14:04:08.853Z,33.31
2023-08-15T14:06:36.908Z,33.37
2023-08-15T14:09:06.195Z,33.32
2023-08-15T14:11:34.161Z,33.54
2023-08-15T14:14:02.521Z,33.92
2023-08-15T14:16:30.558Z,34.23
2023-08-15T14:19:00.345Z,34.69
2023-08-15T14:21:28.918Z,35.08
2023-08-15T14:23:58.149Z,35.16
2023-08-15T14:26:26.722Z,35.10
2023-08-15T14:28:56.303Z,35.19
2023-08-15T14:31:24.791Z,34.99
2023-08-15T14:33:53.253Z,34.96
2023-08-15T14:36:23.519Z,34.79
2023-08-15T14:38:52.194Z,34.36
2023-08-15T14:41:20.667Z,34.45
2023-08-15T14:43:48.695Z,34.56
2023-08-15T14:46:16.833Z,34.58
2023-08-15T14:48:44.872Z,34.93
2023-08-15T14:51:13.420Z,34.90
2023-08-15T14:53:43.115Z,34.97
2023-08-15T14:56:11.144Z,35.20
2023-08-15T14:58:39.147Z,35.52
2023-08-15T15:01:08.415Z,35.56
2023-08-15T15:03:36.649Z,35.30
2023-08-15T15:06:05.326Z,35.28
2023-08-15T15:08:33.641Z,35.33
2023-08-15T15:11:04.797Z,35.19
2023-08-15T15:13:33.672Z,35.20
2023-08-15T15:16:01.891Z,34.91
2023-08-15T15:18:30.844Z,34.82
2023-08-15T15:20:59.589Z,34.83
2023-08-15T15:23:29.889Z,34.94
2023-08-15T15:25:57.856Z,34.80
2023-08-15T15:28:27.224Z,34.92
2023-08-15T15:30:58.421Z,34.82
2023-08-15T15:33:27.838Z,34.77
2023-08-15T15:35:57.394Z,34.91
2023-08-15T15:38:25.837Z,35.13
2023-08-15T15:40:53.919Z,35.41
2023-08-15T15:43:22.499Z,35.68
2023-08-15T15:45:52.113Z,35.65
2023-08-15T15:48:20.123Z,35.82
2023-08-15T15:50:48.599Z,35.92
2023-08-15T15:53:16.840Z,36.05
2023-08-15T15:55:45.095Z,36.32
2023-08-15T15:58:13.253Z,36.41
2023-08-15T16:00:41.368Z,36.49
2023-08-15T16:03:11.234Z,36.48
2023-08-15T16:05:39.854Z,36.56
2023-08-15T16:08:08.872Z,36.76
2023-08-15T16:10:41.700Z,36.80
2023-08-15T16:13:09.730Z,36.70
2023-08-15T16:15:38.055Z,36.66
2023-08-15T16:18:06.913Z,36.67
2023-08-15T16:20:36.409Z,36.69
2023-08-15T16:23:04.515Z,36.56
2023-08-15T16:25:32.714Z,36.48
2023-08-15T16:28:00.923Z,36.51
2023-08-15T16:30:29.195Z,36.61
2023-08-15T16:32:57.366Z,36.63
2023-08-15T16:35:25.683Z,36.56
2023-08-15T16:37:55.893Z,36.56
2023-08-15T16:40:25.774Z,36.54
2023-08-15T16:42:56.807Z,36.75
2023-08-15T16:45:25.135Z,36.98
2023-08-15T16:47:53.627Z,36.94
2023-08-15T16:50:21.985Z,36.90
2023-08-15T16:52:50.153Z,36.65
2023-08-15T16:55:20.060Z,36.64
2023-08-15T16:57:48.661Z,36.83
2023-08-15T17:00:18.075Z,36.99
2023-08-15T17:02:46.818Z,37.19
2023-08-15T17:05:15.237Z,37.35
2023-08-15T17:07:44.574Z,37.36
2023-08-15T17:10:14.238Z,37.15
2023-08-15T17:12:43.825Z,37.17
2023-08-15T17:15:12.583Z,37.23
2023-08-15T17:17:41.046Z,37.34
2023-08-15T17:20:11.077Z,37.41
2023-08-15T17:22:39.338Z,37.28
2023-08-15T17:25:09.100Z,37.09
2023-08-15T17:27:38.466Z,36.80
2023-08-15T17:30:09.496Z,36.42
2023-08-15T17:32:37.636Z,35.97
2023-08-15T17:35:06.453Z,35.45
2023-08-15T17:37:34.456Z,35.19
2023-08-15T17:40:02.965Z,35.12
2023-08-15T17:42:31.085Z,34.47
2023-08-15T17:44:59.140Z,33.36
2023-08-15T17:47:28.915Z,32.31
2023-08-15T17:49:57.403Z,31.22
2023-08-15T17:52:25.424Z,30.18
2023-08-15T17:54:53.491Z,29.31
2023-08-15T17:57:21.631Z,28.59
2023-08-15T17:59:50.854Z,27.99
2023-08-15T18:02:19.120Z,27.61
2023-08-15T18:04:51.613Z,27.26
2023-08-15T18:07:20.116Z,26.96
2023-08-15T18:09:48.381Z,26.64
2023-08-15T18:12:16.445Z,26.32
2023-08-15T18:14:44.477Z,26.12
2023-08-15T18:17:12.405Z,25.89
2023-08-15T18:19:40.374Z,25.70
2023-08-15T18:22:11.576Z,25.59
2023-08-15T18:24:41.997Z,25.44
2023-08-15T18:27:11.532Z,25.29
2023-08-15T18:29:40.439Z,25.27
2023-08-15T18:32:09.034Z,25.18
2023-08-15T18:34:37.258Z,25.09
2023-08-15T18:37:05.721Z,24.98
2023-08-15T18:39:35.277Z,24.84
2023-08-15T18:42:03.462Z,24.77
2023-08-15T18:44:31.492Z,24.72
2023-08-15T18:47:00.811Z,24.65
2023-08-15T18:49:28.818Z,24.61
2023-08-15T18:51:56.964Z,24.50
2023-08-15T18:54:25.217Z,24.45
2023-08-15T18:56:54.739Z,24.36
2023-08-15T18:59:24.784Z,24.30
2023-08-15T19:01:53.138Z,24.23
2023-08-15T19:04:21.326Z,24.18
2023-08-15T19:06:49.579Z,24.13
2023-08-15T19:09:18.172Z,24.09
2023-08-15T19:11:46.184Z,23.96
2023-08-15T19:14:16.229Z,23.90
2023-08-15T19:16:44.271Z,23.79
2023-08-15T19:19:12.489Z,23.73
2023-08-15T19:21:40.690Z,23.66
2023-08-15T19:24:09.135Z,23.60
2023-08-15T19:26:37.140Z,23.54
2023-08-15T19:29:05.460Z,23.49
2023-08-15T19:31:35.966Z,23.43
2023-08-15T19:34:04.909Z,23.40
2023-08-15T19:36:33.033Z,23.35
2023-08-15T19:39:01.187Z,23.31
2023-08-15T19:41:29.471Z,23.26
2023-08-15T19:43:59.768Z,23.23
2023-08-15T19:46:27.916Z,23.16
2023-08-15T19:48:57.341Z,23.12
2023-08-15T19:51:25.743Z,23.08
2023-08-15T19:53:54.369Z,23.06
2023-08-15T19:56:23.237Z,22.98
2023-08-15T19:58:51.496Z,22.99
2023-08-15T20:01:19.554Z,22.95
2023-08-15T20:03:47.492Z,22.92
2023-08-15T20:06:17.211Z,22.90
2023-08-15T20:11:12.867Z,22.81
2023-08-15T20:13:40.993Z,22.77
2023-08-15T20:16:09.041Z,22.73
2023-08-15T20:18:37.519Z,22.72
2023-08-15T20:21:05.811Z,22.68
2023-08-15T20:23:35.152Z,22.60
2023-08-15T20:26:03.463Z,22.54
2023-08-15T20:28:31.588Z,22.49
2023-08-15T20:30:59.640Z,22.44
2023-08-15T20:33:27.853Z,22.38
2023-08-15T20:35:55.997Z,22.33
2023-08-15T20:38:24.119Z,22.28
2023-08-15T20:40:53.870Z,22.22
2023-08-15T20:43:21.888Z,22.13
2023-08-15T20:45:52.558Z,22.12
2023-08-15T20:48:21.169Z,22.11
2023-08-15T20:50:49.560Z,22.11
2023-08-15T20:53:17.567Z,22.10
2023-08-15T20:55:45.869Z,22.11
2023-08-15T20:58:15.193Z,22.00
2023-08-15T21:00:46.082Z,22.08
2023-08-15T21:03:14.879Z,22.05
2023-08-15T21:05:44.235Z,22.07
2023-08-15T21:08:12.721Z,22.06
2023-08-15T21:10:41.070Z,22.03
2023-08-15T21:13:09.363Z,21.99
2023-08-15T21:15:39.086Z,21.95
2023-08-15T21:18:07.516Z,21.95
2023-08-15T21:20:35.447Z,21.91
2023-08-15T21:23:04.187Z,21.86
2023-08-15T21:25:32.199Z,21.86
2023-08-15T21:28:00.318Z,21.83
2023-08-15T21:30:28.364Z,21.78
2023-08-15T21:32:57.866Z,21.71
2023-08-15T21:35:25.864Z,21.67
2023-08-15T21:37:53.943Z,21.64
2023-08-15T21:40:22.581Z,21.60
2023-08-15T21:42:50.841Z,21.58
2023-08-15T21:45:19.916Z,21.54
2023-08-15T21:47:48.527Z,21.51
2023-08-15T21:52:46.490Z,21.47
2023-08-15T21:55:16.198Z,21.49
2023-08-15T21:57:44.264Z,21.49
2023-08-15T22:00:13.680Z,21.44
2023-08-15T22:02:42.123Z,21.43
2023-08-15T22:05:10.515Z,21.39
2023-08-15T22:07:39.953Z,21.32
2023-08-15T22:10:09.173Z,21.24
2023-08-15T22:12:37.109Z,21.17
2023-08-15T22:15:06.002Z,21.14
2023-08-15T22:17:45.190Z,21.10
2023-08-15T22:20:14.585Z,21.05
2023-08-15T22:22:44.054Z,21.00
2023-08-15T22:25:12.248Z,20.93
2023-08-15T22:27:40.161Z,20.94
2023-08-15T22:30:09.510Z,20.91
2023-08-15T22:32:37.548Z,20.89
2023-08-15T22:35:06.100Z,20.88
2023-08-15T22:37:34.205Z,20.84
2023-08-15T22:40:04.961Z,20.72
2023-08-15T22:42:33.025Z,20.70
2023-08-15T22:45:01.293Z,20.59
2023-08-15T22:47:29.402Z,20.44
2023-08-15T22:49:57.557Z,20.32
2023-08-15T22:52:25.969Z,20.22
2023-08-15T22:54:54.889Z,20.12
2023-08-15T22:57:24.408Z,20.10
2023-08-15T22:59:52.497Z,20.08
2023-08-15T23:02:20.465Z,20.06
2023-08-15T23:04:48.388Z,20.05
2023-08-15T23:07:16.310Z,20.04
2023-08-15T23:09:44.296Z,20.02
2023-08-15T23:12:12.261Z,20.01
2023-08-15T23:14:41.671Z,20.01
2023-08-15T23:17:09.636Z,19.96
2023-08-15T23:19:37.610Z,20.01
2023-08-15T23:22:05.753Z,20.00
2023-08-15T23:24:33.701Z,19.97
2023-08-15T23:27:02.727Z,19.92
2023-08-15T23:29:31.390Z,19.90
2023-08-15T23:32:03.723Z,19.81
2023-08-15T23:34:31.691Z,19.82
2023-08-15T23:36:59.614Z,19.84
2023-08-15T23:39:27.546Z,19.82
2023-08-15T23:41:55.509Z,19.75
2023-08-15T23:44:23.529Z,19.66
2023-08-15T23:46:51.826Z,19.59
2023-08-15T23:49:21.290Z,19.51
2023-08-15T23:51:49.321Z,19.45
2023-08-15T23:54:17.232Z,19.40
2023-08-15T23:56:45.184Z,19.37
2023-08-15T23:59:13.133Z,19.32
